createdAt,value
2022-10-29T00:02:17.822Z,20.99
2022-10-29T00:04:44.672Z,20.86
2022-10-29T00:07:11.379Z,20.15
2022-10-29T00:09:38.106Z,19.64
2022-10-29T00:12:05.075Z,19.39
2022-10-29T00:14:31.759Z,19.07
2022-10-29T00:16:58.485Z,18.80
2022-10-29T00:19:26.272Z,18.60
2022-10-29T00:21:53.115Z,18.20
2022-10-29T00:24:19.845Z,17.60
2022-10-29T00:26:46.815Z,17.29
2022-10-29T00:29:13.581Z,17.22
2022-10-29T00:31:40.315Z,17.22
2022-10-29T00:34:07.224Z,17.27
2022-10-29T00:36:33.928Z,17.36
2022-10-29T00:39:00.660Z,17.49
2022-10-29T00:41:29.555Z,17.56
2022-10-29T00:44:14.862Z,17.60
2022-10-29T00:46:51.639Z,17.75
2022-10-29T00:49:19.393Z,17.89
2022-10-29T00:51:47.425Z,17.72
2022-10-29T00:54:17.089Z,17.00
2022-10-29T00:56:50.778Z,16.58
2022-10-29T00:59:18.418Z,16.55
2022-10-29T01:01:48.542Z,16.46
2022-10-29T01:04:17.427Z,16.40
2022-10-29T01:06:45.097Z,16.35
2022-10-29T01:09:11.802Z,16.40
2022-10-29T01:11:44.523Z,16.42
2022-10-29T01:14:23.311Z,16.41
2022-10-29T01:17:03.866Z,16.45
2022-10-29T01:19:55.687Z,16.44
2022-10-29T01:22:35.271Z,16.41
2022-10-29T01:25:26.542Z,16.41
2022-10-29T01:28:11.516Z,16.45
2022-10-29T01:31:01.561Z,16.35
2022-10-29T01:33:31.122Z,16.23
2022-10-29T01:36:10.030Z,16.41
2022-10-29T01:39:24.752Z,16.42
2022-10-29T01:42:03.294Z,16.48
2022-10-29T01:44:35.392Z,16.49
2022-10-29T01:47:05.263Z,16.48
2022-10-29T01:49:40.738Z,16.47
2022-10-29T01:52:10.676Z,16.47
2022-10-29T01:54:42.513Z,16.41
2022-10-29T01:57:34.066Z,16.30
2022-10-29T02:00:20.807Z,16.22
2022-10-29T02:03:05.777Z,16.16
2022-10-29T02:06:12.309Z,16.17
2022-10-29T02:08:44.895Z,16.16
2022-10-29T02:11:54.754Z,16.03
2022-10-29T02:14:29.514Z,16.08
2022-10-29T02:16:57.064Z,16.13
2022-10-29T02:19:23.861Z,16.05
2022-10-29T02:21:51.605Z,16.25
2022-10-29T02:24:18.406Z,16.31
2022-10-29T02:26:45.091Z,16.38
2022-10-29T02:29:11.942Z,16.46
2022-10-29T02:31:38.628Z,16.48
2022-10-29T02:34:05.422Z,16.52
2022-10-29T02:36:32.285Z,16.56
2022-10-29T02:38:59.000Z,16.55
2022-10-29T02:41:25.815Z,16.60
2022-10-29T02:43:52.632Z,16.63
2022-10-29T02:46:21.883Z,16.70
2022-10-29T02:48:49.055Z,16.76
2022-10-29T02:51:17.124Z,16.85
2022-10-29T02:53:44.248Z,16.93
2022-10-29T02:56:11.295Z,16.98
2022-10-29T02:58:38.185Z,17.03
2022-10-29T03:01:07.056Z,17.11
2022-10-29T03:03:33.968Z,17.27
2022-10-29T03:06:00.856Z,17.35
2022-10-29T03:08:27.599Z,17.49
2022-10-29T03:10:55.459Z,17.50
2022-10-29T03:13:22.227Z,17.64
2022-10-29T03:15:48.953Z,17.77
2022-10-29T03:18:15.629Z,17.86
2022-10-29T03:20:43.538Z,17.95
2022-10-29T03:23:10.242Z,17.96
2022-10-29T03:25:36.914Z,18.11
2022-10-29T03:28:03.875Z,18.21
2022-10-29T03:30:30.565Z,18.24
2022-10-29T03:32:57.612Z,18.34
2022-10-29T03:35:24.771Z,18.37
2022-10-29T03:37:52.455Z,18.37
2022-10-29T03:40:19.990Z,18.33
2022-10-29T03:42:46.938Z,18.26
2022-10-29T03:45:14.635Z,18.20
2022-10-29T03:47:41.451Z,18.17
2022-10-29T03:50:08.978Z,18.03
2022-10-29T03:52:36.096Z,17.62
2022-10-29T03:55:03.560Z,17.32
2022-10-29T03:57:30.519Z,17.00
2022-10-29T03:59:57.289Z,16.83
2022-10-29T04:02:25.150Z,16.80
2022-10-29T04:04:52.015Z,16.90
2022-10-29T04:07:19.525Z,17.10
2022-10-29T04:09:46.219Z,17.23
2022-10-29T04:12:13.026Z,17.13
2022-10-29T04:14:44.484Z,17.11
2022-10-29T04:17:13.244Z,17.19
2022-10-29T04:19:40.702Z,17.10
2022-10-29T04:28:41.318Z,17.43
2022-10-29T04:30:29.396Z,17.59
2022-10-29T04:32:58.812Z,17.66
2022-10-29T04:35:27.596Z,17.62
2022-10-29T04:37:55.778Z,17.64
2022-10-29T04:40:24.564Z,17.63
2022-10-29T04:42:51.666Z,17.66
2022-10-29T04:45:19.091Z,17.69
2022-10-29T04:47:46.169Z,17.71
2022-10-29T04:50:13.102Z,17.79
2022-10-29T04:52:40.089Z,17.79
2022-10-29T04:55:07.129Z,17.87
2022-10-29T04:57:34.020Z,17.89
2022-10-29T05:00:00.853Z,17.99
2022-10-29T05:02:27.595Z,18.02
2022-10-29T05:04:54.268Z,17.94
2022-10-29T05:07:21.075Z,17.82
2022-10-29T05:09:47.803Z,17.89
2022-10-29T05:12:14.488Z,17.86
2022-10-29T05:14:41.334Z,17.93
2022-10-29T05:19:39.694Z,18.02
2022-10-29T05:22:06.546Z,18.03
2022-10-29T05:24:33.232Z,18.08
2022-10-29T05:26:59.947Z,18.20
2022-10-29T05:29:26.808Z,18.22
2022-10-29T05:31:54.707Z,18.26
2022-10-29T05:34:21.716Z,18.30
2022-10-29T05:36:48.623Z,18.23
2022-10-29T05:39:15.452Z,18.24
2022-10-29T05:41:42.439Z,18.28
2022-10-29T05:44:09.651Z,18.26
2022-10-29T05:46:36.335Z,18.31
2022-10-29T05:49:03.836Z,18.16
2022-10-29T05:51:30.868Z,17.78
2022-10-29T05:53:57.571Z,17.33
2022-10-29T05:56:24.263Z,17.19
2022-10-29T05:58:51.717Z,17.02
2022-10-29T06:01:19.972Z,16.89
2022-10-29T06:03:47.365Z,16.81
2022-10-29T06:06:14.309Z,16.70
2022-10-29T06:08:41.054Z,16.62
2022-10-29T06:11:07.794Z,16.58
2022-10-29T06:13:34.679Z,16.54
2022-10-29T06:16:01.847Z,16.58
2022-10-29T06:18:29.269Z,16.50
2022-10-29T06:20:59.671Z,16.49
2022-10-29T06:23:27.606Z,16.54
2022-10-29T06:25:54.355Z,16.61
2022-10-29T06:28:21.224Z,16.55
2022-10-29T06:30:51.667Z,16.45
2022-10-29T06:33:19.096Z,16.56
2022-10-29T06:35:46.877Z,16.50
2022-10-29T06:38:14.275Z,16.49
2022-10-29T06:40:42.117Z,16.56
2022-10-29T06:43:12.797Z,16.51
2022-10-29T06:45:39.885Z,16.52
2022-10-29T06:48:06.989Z,16.54
2022-10-29T06:50:33.985Z,16.49
2022-10-29T06:53:01.977Z,16.41
2022-10-29T06:55:29.454Z,16.34
2022-10-29T06:58:01.261Z,16.40
2022-10-29T07:00:29.235Z,16.38
2022-10-29T07:02:57.255Z,16.33
2022-10-29T07:05:24.761Z,16.32
2022-10-29T07:07:59.080Z,16.24
2022-10-29T07:10:28.305Z,16.19
2022-10-29T07:12:55.479Z,16.14
2022-10-29T07:15:25.767Z,16.08
2022-10-29T07:18:03.343Z,15.98
2022-10-29T07:20:33.106Z,15.95
2022-10-29T07:23:01.617Z,15.95
2022-10-29T07:25:29.248Z,15.99
2022-10-29T07:28:02.243Z,16.08
2022-10-29T07:30:29.350Z,16.14
2022-10-29T07:32:56.362Z,16.19
2022-10-29T07:35:23.139Z,16.19
2022-10-29T07:37:50.002Z,16.21
2022-10-29T07:40:16.927Z,16.20
2022-10-29T07:42:43.655Z,16.19
2022-10-29T07:45:10.739Z,16.19
2022-10-29T07:47:37.522Z,16.22
2022-10-29T07:50:04.565Z,16.22
2022-10-29T07:52:31.346Z,16.26
2022-10-29T07:55:00.603Z,16.29
2022-10-29T07:57:27.291Z,16.30
2022-10-29T07:59:54.142Z,16.34
2022-10-29T08:02:20.868Z,16.34
2022-10-29T08:04:47.590Z,16.37
2022-10-29T08:07:14.530Z,16.30
2022-10-29T08:09:41.345Z,16.30
2022-10-29T08:12:11.688Z,16.31
2022-10-29T08:14:38.646Z,16.31
2022-10-29T08:17:05.336Z,16.30
2022-10-29T08:19:32.145Z,16.24
2022-10-29T08:21:59.191Z,16.26
2022-10-29T08:24:25.912Z,16.22
2022-10-29T08:26:52.596Z,16.27
2022-10-29T08:29:19.566Z,16.28
2022-10-29T08:31:46.333Z,16.32
2022-10-29T08:34:13.148Z,16.32
2022-10-29T08:36:41.977Z,16.37
2022-10-29T08:39:08.719Z,16.39
2022-10-29T08:41:50.505Z,16.45
2022-10-29T08:44:32.232Z,16.44
2022-10-29T08:47:17.083Z,16.52
2022-10-29T08:49:49.070Z,16.58
2022-10-29T08:52:24.343Z,16.69
2022-10-29T08:55:12.944Z,16.69
2022-10-29T08:57:53.191Z,16.78
2022-10-29T09:00:23.128Z,16.89
2022-10-29T09:02:58.686Z,16.91
2022-10-29T09:05:52.956Z,16.97
2022-10-29T09:08:30.211Z,16.99
2022-10-29T09:11:01.425Z,17.10
2022-10-29T09:13:51.541Z,17.23
2022-10-29T09:16:45.247Z,17.21
2022-10-29T09:19:29.789Z,17.10
2022-10-29T09:22:11.361Z,17.04
2022-10-29T09:24:54.459Z,17.00
2022-10-29T09:27:21.106Z,17.07
2022-10-29T09:30:04.386Z,17.13
2022-10-29T09:33:07.426Z,17.21
2022-10-29T09:35:44.503Z,17.38
2022-10-29T09:38:17.472Z,17.47
2022-10-29T09:40:44.822Z,17.65
2022-10-29T09:43:48.449Z,17.85
2022-10-29T09:46:31.893Z,18.07
2022-10-29T09:49:20.518Z,18.08
2022-10-29T09:52:26.709Z,17.94
2022-10-29T09:54:54.605Z,18.00
2022-10-29T09:57:26.932Z,18.16
2022-10-29T10:00:02.444Z,18.50
2022-10-29T10:02:52.074Z,18.77
2022-10-29T10:05:25.174Z,18.88
2022-10-29T10:08:17.994Z,18.80
2022-10-29T10:10:58.422Z,19.06
2022-10-29T10:13:37.038Z,19.20
2022-10-29T10:16:06.218Z,19.27
2022-10-29T10:18:32.929Z,19.79
2022-10-29T10:21:14.641Z,19.50
2022-10-29T10:23:52.774Z,19.16
2022-10-29T10:26:25.668Z,18.81
2022-10-29T10:29:15.447Z,18.51
2022-10-29T10:31:55.264Z,18.40
2022-10-29T10:34:23.169Z,18.06
2022-10-29T10:36:56.277Z,18.30
2022-10-29T10:39:26.152Z,18.45
2022-10-29T10:41:53.769Z,18.45
2022-10-29T10:44:23.062Z,18.48
2022-10-29T10:46:52.656Z,18.53
2022-10-29T10:49:36.791Z,18.57
2022-10-29T10:52:12.232Z,18.61
2022-10-29T10:54:42.349Z,18.62
2022-10-29T10:57:11.822Z,18.55
2022-10-29T10:59:56.901Z,18.44
2022-10-29T11:02:48.034Z,18.31
2022-10-29T11:05:23.463Z,18.18
2022-10-29T11:08:07.245Z,18.03
2022-10-29T11:10:41.861Z,18.10
2022-10-29T11:13:16.032Z,17.99
2022-10-29T11:15:51.211Z,17.83
2022-10-29T11:18:42.692Z,17.64
2022-10-29T11:21:15.412Z,17.55
2022-10-29T11:23:42.064Z,17.44
2022-10-29T11:26:26.304Z,17.27
2022-10-29T11:28:59.343Z,17.25
2022-10-29T11:32:04.327Z,17.12
2022-10-29T11:35:04.393Z,17.15
2022-10-29T11:37:38.914Z,16.84
2022-10-29T11:40:11.669Z,17.05
2022-10-29T11:42:39.531Z,17.07
2022-10-29T11:45:13.827Z,17.12
2022-10-29T11:47:43.223Z,17.20
2022-10-29T11:50:31.521Z,17.28
2022-10-29T11:53:26.467Z,17.45
2022-10-29T11:56:11.956Z,17.56
2022-10-29T11:58:48.681Z,17.89
2022-10-29T12:02:01.538Z,18.31
2022-10-29T12:04:35.413Z,18.50
2022-10-29T12:07:14.329Z,18.68
2022-10-29T12:09:53.253Z,18.60
2022-10-29T12:12:39.943Z,18.50
2022-10-29T12:15:18.569Z,18.36
2022-10-29T12:18:00.959Z,18.43
2022-10-29T12:20:45.696Z,18.43
2022-10-29T12:23:39.577Z,18.51
2022-10-29T12:26:12.419Z,18.48
2022-10-29T12:29:11.149Z,18.59
2022-10-29T12:32:10.763Z,19.08
2022-10-29T12:34:43.599Z,19.48
2022-10-29T12:37:14.313Z,19.23
2022-10-29T12:39:47.412Z,19.09
2022-10-29T12:42:22.152Z,19.08
2022-10-29T12:45:07.487Z,19.29
2022-10-29T12:47:48.536Z,19.52
2022-10-29T12:50:24.399Z,19.55
2022-10-29T12:53:04.716Z,19.53
2022-10-29T12:55:32.839Z,19.50
2022-10-29T12:57:59.622Z,19.36
2022-10-29T13:00:27.511Z,19.28
2022-10-29T13:02:56.013Z,19.29
2022-10-29T13:05:36.811Z,19.35
2022-10-29T13:08:03.450Z,19.43
2022-10-29T13:10:33.280Z,19.60
2022-10-29T13:13:00.138Z,19.83
2022-10-29T13:15:26.787Z,20.07
2022-10-29T13:17:56.086Z,20.10
2022-10-29T13:20:37.451Z,19.99
2022-10-29T13:23:24.228Z,19.76
2022-10-29T13:26:02.200Z,19.72
2022-10-29T13:28:28.830Z,19.58
2022-10-29T13:31:04.694Z,19.42
2022-10-29T13:33:31.341Z,19.31
2022-10-29T13:36:02.014Z,19.13
2022-10-29T13:39:04.485Z,19.05
2022-10-29T13:41:50.083Z,19.12
2022-10-29T13:44:22.645Z,19.36
2022-10-29T13:47:12.748Z,19.52
2022-10-29T13:49:45.638Z,19.80
2022-10-29T13:52:17.912Z,19.97
2022-10-29T13:54:59.341Z,20.25
2022-10-29T13:57:34.324Z,20.33
2022-10-29T14:00:15.548Z,20.27
2022-10-29T14:02:42.294Z,20.21
2022-10-29T14:05:15.022Z,20.16
2022-10-29T14:07:51.036Z,19.97
2022-10-29T14:10:25.531Z,19.77
2022-10-29T14:12:58.198Z,19.69
2022-10-29T14:15:25.314Z,19.70
2022-10-29T14:17:52.131Z,19.63
2022-10-29T14:20:29.012Z,19.46
2022-10-29T14:22:56.227Z,19.18
2022-10-29T14:25:29.441Z,18.98
2022-10-29T14:28:26.203Z,18.68
2022-10-29T14:31:05.174Z,18.58
2022-10-29T14:33:37.808Z,18.57
2022-10-29T14:36:27.390Z,18.38
2022-10-29T14:39:28.718Z,18.32
2022-10-29T14:42:05.371Z,18.33
2022-10-29T14:44:33.199Z,18.47
2022-10-29T14:47:07.785Z,18.41
2022-10-29T14:49:40.906Z,18.26
2022-10-29T14:52:22.922Z,18.30
2022-10-29T14:54:50.762Z,18.51
2022-10-29T14:57:21.193Z,18.69
2022-10-29T14:59:56.448Z,18.81
2022-10-29T15:02:37.606Z,18.89
2022-10-29T15:05:22.387Z,18.98
2022-10-29T15:07:49.741Z,18.95
2022-10-29T15:10:21.060Z,18.94
2022-10-29T15:12:49.696Z,18.91
2022-10-29T15:15:27.572Z,18.97
2022-10-29T15:18:13.105Z,19.00
2022-10-29T15:20:39.849Z,19.05
2022-10-29T15:23:18.416Z,19.12
2022-10-29T15:25:48.105Z,19.12
2022-10-29T15:28:24.192Z,19.03
2022-10-29T15:30:51.132Z,18.96
2022-10-29T15:33:21.840Z,18.82
2022-10-29T15:35:59.672Z,18.79
2022-10-29T15:38:35.161Z,18.86
2022-10-29T15:41:13.792Z,19.03
2022-10-29T15:43:52.693Z,19.10
2022-10-29T15:46:26.041Z,19.21
2022-10-29T15:48:53.302Z,19.21
2022-10-29T15:51:31.286Z,19.03
2022-10-29T15:54:02.145Z,18.96
2022-10-29T15:56:31.562Z,18.83
2022-10-29T15:59:00.568Z,18.78
2022-10-29T16:01:27.502Z,18.74
2022-10-29T16:03:54.630Z,18.81
2022-10-29T16:06:21.438Z,18.81
2022-10-29T16:08:51.496Z,18.88
2022-10-29T16:11:21.007Z,18.93
2022-10-29T16:13:54.387Z,18.87
2022-10-29T16:18:51.549Z,18.80
2022-10-29T16:21:26.043Z,18.75
2022-10-29T16:23:53.269Z,18.67
2022-10-29T16:26:22.718Z,18.60
2022-10-29T16:28:50.452Z,18.60
2022-10-29T16:31:20.646Z,18.60
2022-10-29T16:33:48.668Z,18.57
2022-10-29T16:36:16.398Z,18.62
2022-10-29T16:38:44.001Z,18.61
2022-10-29T16:41:15.788Z,18.53
2022-10-29T16:43:43.486Z,18.33
2022-10-29T16:46:11.119Z,18.30
2022-10-29T16:48:38.291Z,18.23
2022-10-29T16:51:05.558Z,18.31
2022-10-29T16:53:32.597Z,18.33
2022-10-29T16:55:59.453Z,18.40
2022-10-29T16:58:26.267Z,18.24
2022-10-29T17:01:05.322Z,18.33
2022-10-29T17:03:33.387Z,18.32
2022-10-29T17:06:11.121Z,18.30
2022-10-29T17:08:38.860Z,18.42
2022-10-29T17:11:10.209Z,18.30
2022-10-29T17:13:37.774Z,18.08
2022-10-29T17:16:09.775Z,17.94
2022-10-29T17:18:36.470Z,17.95
2022-10-29T17:21:03.836Z,17.97
2022-10-29T17:23:32.103Z,17.98
2022-10-29T17:25:59.830Z,18.00
2022-10-29T17:28:27.828Z,17.97
2022-10-29T17:30:54.771Z,17.84
2022-10-29T17:33:21.606Z,17.80
2022-10-29T17:35:48.303Z,17.72
2022-10-29T17:38:15.248Z,17.65
2022-10-29T17:40:44.730Z,17.62
2022-10-29T17:43:11.682Z,17.57
2022-10-29T17:45:38.514Z,17.53
2022-10-29T17:48:05.510Z,17.48
2022-10-29T17:50:32.256Z,17.52
2022-10-29T17:52:59.174Z,17.44
2022-10-29T17:55:25.934Z,17.53
2022-10-29T17:57:52.634Z,17.52
2022-10-29T18:00:19.698Z,17.53
2022-10-29T18:02:49.928Z,17.43
2022-10-29T18:05:17.355Z,17.43
2022-10-29T18:07:44.130Z,17.34
2022-10-29T18:10:11.214Z,17.10
2022-10-29T18:12:37.900Z,16.95
2022-10-29T18:15:05.658Z,16.87
2022-10-29T18:17:32.679Z,16.86
2022-10-29T18:19:59.754Z,16.83
2022-10-29T18:22:26.523Z,16.94
2022-10-29T18:24:53.223Z,16.95
2022-10-29T18:27:20.409Z,16.90
2022-10-29T18:29:47.313Z,16.88
2022-10-29T18:32:14.027Z,16.90
2022-10-29T18:34:40.783Z,16.93
2022-10-29T18:37:07.718Z,16.93
2022-10-29T18:39:34.575Z,16.99
2022-10-29T18:42:01.464Z,16.99
2022-10-29T18:44:28.437Z,17.05
2022-10-29T18:46:55.310Z,17.13
2022-10-29T18:49:22.054Z,17.19
2022-10-29T18:51:48.930Z,17.29
2022-10-29T18:54:15.720Z,17.30
2022-10-29T18:56:42.717Z,17.25
2022-10-29T18:59:10.731Z,17.26
2022-10-29T19:01:37.664Z,17.19
2022-10-29T19:04:07.341Z,17.23
2022-10-29T19:06:37.169Z,17.22
2022-10-29T19:09:07.710Z,17.21
2022-10-29T19:11:34.814Z,17.22
2022-10-29T19:14:04.640Z,17.22
2022-10-29T19:16:33.151Z,17.22
2022-10-29T19:19:03.082Z,17.25
2022-10-29T19:21:30.387Z,17.21
2022-10-29T19:23:59.015Z,17.25
2022-10-29T19:26:28.397Z,17.21
2022-10-29T19:28:55.832Z,17.18
2022-10-29T19:31:26.422Z,17.16
2022-10-29T19:33:56.509Z,17.14
2022-10-29T19:36:23.647Z,16.86
2022-10-29T19:38:51.665Z,17.08
2022-10-29T19:41:18.700Z,16.97
2022-10-29T19:43:45.868Z,16.80
2022-10-29T19:46:15.421Z,16.55
2022-10-29T19:48:42.877Z,16.27
2022-10-29T19:51:11.019Z,16.11
2022-10-29T19:53:39.107Z,16.04
2022-10-29T19:56:10.837Z,15.86
2022-10-29T19:58:37.579Z,15.73
2022-10-29T20:01:10.916Z,15.73
2022-10-29T20:03:37.708Z,15.73
2022-10-29T20:06:04.602Z,15.71
2022-10-29T20:08:31.706Z,15.73
2022-10-29T20:11:00.232Z,15.76
2022-10-29T20:13:27.628Z,15.82
2022-10-29T20:15:54.843Z,15.84
2022-10-29T20:18:21.949Z,15.80
2022-10-29T20:20:56.839Z,15.73
2022-10-29T20:23:25.748Z,15.80
2022-10-29T20:25:52.749Z,15.81
2022-10-29T20:28:19.737Z,15.78
2022-10-29T20:30:46.764Z,15.72
2022-10-29T20:33:13.508Z,15.59
2022-10-29T20:35:40.402Z,15.61
2022-10-29T20:38:07.524Z,15.59
2022-10-29T20:40:34.254Z,15.61
2022-10-29T20:43:01.158Z,15.58
2022-10-29T20:45:27.927Z,15.59
2022-10-29T20:47:54.896Z,15.63
2022-10-29T20:50:21.960Z,15.65
2022-10-29T20:52:50.597Z,15.64
2022-10-29T20:55:17.336Z,15.75
2022-10-29T20:57:44.175Z,15.83
2022-10-29T21:00:11.269Z,15.86
2022-10-29T21:02:38.100Z,15.92
2022-10-29T21:05:05.287Z,15.97
2022-10-29T21:07:32.052Z,16.00
2022-10-29T21:09:58.733Z,16.02
2022-10-29T21:12:25.566Z,16.09
2022-10-29T21:14:52.282Z,16.09
2022-10-29T21:17:21.771Z,16.08
2022-10-29T21:19:48.736Z,16.04
2022-10-29T21:22:18.892Z,16.10
2022-10-29T21:24:46.027Z,16.09
2022-10-29T21:27:12.889Z,16.09
2022-10-29T21:29:39.629Z,16.01
2022-10-29T21:32:06.417Z,15.91
2022-10-29T21:34:33.275Z,15.88
2022-10-29T21:36:59.976Z,15.77
2022-10-29T21:39:27.749Z,15.74
2022-10-29T21:41:54.546Z,15.67
2022-10-29T21:44:21.505Z,15.68
2022-10-29T21:46:48.197Z,15.63
2022-10-29T21:49:14.977Z,15.57
2022-10-29T21:51:42.593Z,15.50
2022-10-29T21:54:09.378Z,15.53
2022-10-29T21:56:36.160Z,15.50
2022-10-29T21:59:02.887Z,15.46
2022-10-29T22:01:29.723Z,15.47
2022-10-29T22:03:56.645Z,15.48
2022-10-29T22:06:25.934Z,15.48
2022-10-29T22:08:55.033Z,15.37
2022-10-29T22:11:23.007Z,15.35
2022-10-29T22:13:50.086Z,15.34
2022-10-29T22:16:16.874Z,15.35
2022-10-29T22:18:43.889Z,15.37
2022-10-29T22:21:18.100Z,15.33
2022-10-29T22:23:56.383Z,15.37
2022-10-29T22:26:28.279Z,15.37
2022-10-29T22:28:55.574Z,15.45
2022-10-29T22:31:23.698Z,15.50
2022-10-29T22:33:51.113Z,15.53
2022-10-29T22:36:23.255Z,15.52
2022-10-29T22:38:57.703Z,15.55
2022-10-29T22:41:26.183Z,15.61
2022-10-29T22:43:53.174Z,15.64
2022-10-29T22:46:22.093Z,15.68
2022-10-29T22:48:49.330Z,15.70
2022-10-29T22:51:27.138Z,15.77
2022-10-29T22:53:54.887Z,15.81
2022-10-29T22:56:24.798Z,15.84
2022-10-29T22:58:52.405Z,15.77
2022-10-29T23:01:21.739Z,15.90
2022-10-29T23:03:48.635Z,15.83
2022-10-29T23:06:18.152Z,15.83
2022-10-29T23:08:45.662Z,15.85
2022-10-29T23:11:19.659Z,15.86
2022-10-29T23:13:52.400Z,15.86
2022-10-29T23:16:19.587Z,15.93
2022-10-29T23:18:50.352Z,15.98
2022-10-29T23:21:17.744Z,16.01
2022-10-29T23:23:44.875Z,16.03
2022-10-29T23:26:11.969Z,16.02
2022-10-29T23:28:40.048Z,16.06
2022-10-29T23:31:11.325Z,16.06
2022-10-29T23:33:38.662Z,16.11
2022-10-29T23:36:07.860Z,16.12
2022-10-29T23:38:35.403Z,16.10
2022-10-29T23:41:02.867Z,16.17
2022-10-29T23:43:30.277Z,16.20
2022-10-29T23:45:57.370Z,16.24
2022-10-29T23:48:24.674Z,16.19
2022-10-29T23:50:51.867Z,16.10
2022-10-29T23:53:18.911Z,15.72
2022-10-29T23:55:46.400Z,15.49
2022-10-29T23:58:14.131Z,15.50
